sensor_id;sensor_type;location;lat;lon;timestamp;P1;durP1;ratioP1;P2;durP2;ratioP2
3587;SDS011;1808;53.596;9.972;2022-07-19T00:00:37;12.40;;;8.88;;
3587;SDS011;1808;53.596;9.972;2022-07-19T00:03:04;13.25;;;8.68;;
3587;SDS011;1808;53.596;9.972;2022-07-19T00:05:30;15.18;;;8.75;;
3587;SDS011;1808;53.596;9.972;2022-07-19T00:07:58;13.40;;;8.57;;
3587;SDS011;1808;53.596;9.972;2022-07-19T00:10:24;11.52;;;8.25;;
3587;SDS011;1808;53.596;9.972;2022-07-19T00:12:50;13.32;;;9.23;;
3587;SDS011;1808;53.596;9.972;2022-07-19T00:15:17;13.57;;;8.23;;
3587;SDS011;1808;53.596;9.972;2022-07-19T00:17:44;13.32;;;9.02;;
3587;SDS011;1808;53.596;9.972;2022-07-19T00:20:13;13.82;;;8.50;;
3587;SDS011;1808;53.596;9.972;2022-07-19T00:22:40;15.57;;;8.98;;
3587;SDS011;1808;53.596;9.972;2022-07-19T00:25:08;14.43;;;8.65;;
3587;SDS011;1808;53.596;9.972;2022-07-19T00:27:34;11.52;;;8.05;;
3587;SDS011;1808;53.596;9.972;2022-07-19T00:30:02;13.07;;;8.38;;
3587;SDS011;1808;53.596;9.972;2022-07-19T00:32:29;12.55;;;8.68;;
3587;SDS011;1808;53.596;9.972;2022-07-19T00:34:55;13.60;;;8.48;;
3587;SDS011;1808;53.596;9.972;2022-07-19T00:37:22;13.77;;;8.65;;
3587;SDS011;1808;53.596;9.972;2022-07-19T00:39:48;13.23;;;8.23;;
3587;SDS011;1808;53.596;9.972;2022-07-19T00:42:16;12.65;;;8.82;;
3587;SDS011;1808;53.596;9.972;2022-07-19T00:44:43;13.73;;;8.75;;
3587;SDS011;1808;53.596;9.972;2022-07-19T00:47:09;14.23;;;9.27;;
3587;SDS011;1808;53.596;9.972;2022-07-19T00:49:36;10.82;;;7.93;;
3587;SDS011;1808;53.596;9.972;2022-07-19T00:52:02;12.23;;;8.80;;
3587;SDS011;1808;53.596;9.972;2022-07-19T00:54:30;15.48;;;10.20;;
3587;SDS011;1808;53.596;9.972;2022-07-19T00:56:57;17.40;;;9.52;;
3587;SDS011;1808;53.596;9.972;2022-07-19T00:59:25;13.68;;;8.98;;
3587;SDS011;1808;53.596;9.972;2022-07-19T01:01:52;13.00;;;8.90;;
3587;SDS011;1808;53.596;9.972;2022-07-19T01:04:19;13.35;;;9.15;;
3587;SDS011;1808;53.596;9.972;2022-07-19T01:06:46;12.48;;;8.50;;
3587;SDS011;1808;53.596;9.972;2022-07-19T01:09:12;13.60;;;9.65;;
3587;SDS011;1808;53.596;9.972;2022-07-19T01:11:39;16.52;;;9.52;;
3587;SDS011;1808;53.596;9.972;2022-07-19T01:14:05;14.10;;;9.23;;
3587;SDS011;1808;53.596;9.972;2022-07-19T01:16:33;14.25;;;9.50;;
3587;SDS011;1808;53.596;9.972;2022-07-19T01:18:59;14.63;;;8.50;;
3587;SDS011;1808;53.596;9.972;2022-07-19T01:21:27;15.27;;;9.32;;
3587;SDS011;1808;53.596;9.972;2022-07-19T01:23:53;14.93;;;9.57;;
3587;SDS011;1808;53.596;9.972;2022-07-19T01:26:19;12.40;;;9.25;;
3587;SDS011;1808;53.596;9.972;2022-07-19T01:28:46;15.07;;;10.00;;
3587;SDS011;1808;53.596;9.972;2022-07-19T01:31:12;16.40;;;10.40;;
3587;SDS011;1808;53.596;9.972;2022-07-19T01:33:39;14.77;;;9.65;;
3587;SDS011;1808;53.596;9.972;2022-07-19T01:36:06;12.90;;;8.77;;
3587;SDS011;1808;53.596;9.972;2022-07-19T01:38:34;15.85;;;10.30;;
3587;SDS011;1808;53.596;9.972;2022-07-19T01:41:01;13.63;;;9.57;;
3587;SDS011;1808;53.596;9.972;2022-07-19T01:43:27;15.63;;;9.77;;
3587;SDS011;1808;53.596;9.972;2022-07-19T01:45:53;15.55;;;10.32;;
3587;SDS011;1808;53.596;9.972;2022-07-19T01:48:20;14.70;;;9.50;;
3587;SDS011;1808;53.596;9.972;2022-07-19T01:50:46;16.95;;;9.50;;
3587;SDS011;1808;53.596;9.972;2022-07-19T01:53:13;15.45;;;9.73;;
3587;SDS011;1808;53.596;9.972;2022-07-19T01:55:40;17.02;;;10.55;;
3587;SDS011;1808;53.596;9.972;2022-07-19T01:58:07;15.27;;;9.50;;
3587;SDS011;1808;53.596;9.972;2022-07-19T02:00:33;16.13;;;10.32;;
3587;SDS011;1808;53.596;9.972;2022-07-19T02:02:59;14.70;;;9.90;;
3587;SDS011;1808;53.596;9.972;2022-07-19T02:05:26;13.85;;;9.57;;
3587;SDS011;1808;53.596;9.972;2022-07-19T02:07:52;15.57;;;9.48;;
3587;SDS011;1808;53.596;9.972;2022-07-19T02:10:19;13.90;;;9.25;;
3587;SDS011;1808;53.596;9.972;2022-07-19T02:12:47;16.50;;;10.00;;
3587;SDS011;1808;53.596;9.972;2022-07-19T02:15:13;13.43;;;9.07;;
3587;SDS011;1808;53.596;9.972;2022-07-19T02:17:40;13.45;;;9.10;;
3587;SDS011;1808;53.596;9.972;2022-07-19T02:20:07;13.98;;;8.85;;
3587;SDS011;1808;53.596;9.972;2022-07-19T02:22:33;14.05;;;8.60;;
3587;SDS011;1808;53.596;9.972;2022-07-19T02:25:00;14.00;;;8.93;;
3587;SDS011;1808;53.596;9.972;2022-07-19T02:27:26;16.50;;;9.40;;
3587;SDS011;1808;53.596;9.972;2022-07-19T02:29:55;14.38;;;9.27;;
3587;SDS011;1808;53.596;9.972;2022-07-19T02:32:21;13.65;;;8.77;;
3587;SDS011;1808;53.596;9.972;2022-07-19T02:34:48;17.48;;;8.70;;
3587;SDS011;1808;53.596;9.972;2022-07-19T02:37:15;15.23;;;9.32;;
3587;SDS011;1808;53.596;9.972;2022-07-19T02:39:41;14.48;;;9.73;;
3587;SDS011;1808;53.596;9.972;2022-07-19T02:42:07;14.63;;;9.93;;
3587;SDS011;1808;53.596;9.972;2022-07-19T02:44:34;13.82;;;9.30;;
3587;SDS011;1808;53.596;9.972;2022-07-19T02:47:01;13.90;;;9.00;;
3587;SDS011;1808;53.596;9.972;2022-07-19T02:49:28;15.80;;;9.60;;
3587;SDS011;1808;53.596;9.972;2022-07-19T02:51:54;17.27;;;9.50;;
3587;SDS011;1808;53.596;9.972;2022-07-19T02:54:21;13.57;;;9.13;;
3587;SDS011;1808;53.596;9.972;2022-07-19T02:56:47;16.85;;;10.20;;
3587;SDS011;1808;53.596;9.972;2022-07-19T02:59:14;14.75;;;9.65;;
3587;SDS011;1808;53.596;9.972;2022-07-19T03:01:40;15.40;;;9.27;;
3587;SDS011;1808;53.596;9.972;2022-07-19T03:04:08;19.17;;;10.23;;
3587;SDS011;1808;53.596;9.972;2022-07-19T03:06:34;16.13;;;9.55;;
3587;SDS011;1808;53.596;9.972;2022-07-19T03:09:01;17.35;;;9.40;;
3587;SDS011;1808;53.596;9.972;2022-07-19T03:11:27;16.02;;;9.80;;
3587;SDS011;1808;53.596;9.972;2022-07-19T03:13:53;15.25;;;10.05;;
3587;SDS011;1808;53.596;9.972;2022-07-19T03:16:20;19.65;;;11.02;;
3587;SDS011;1808;53.596;9.972;2022-07-19T03:18:46;13.88;;;9.10;;
3587;SDS011;1808;53.596;9.972;2022-07-19T03:21:14;15.27;;;9.30;;
3587;SDS011;1808;53.596;9.972;2022-07-19T03:23:40;12.63;;;8.82;;
3587;SDS011;1808;53.596;9.972;2022-07-19T03:26:07;13.88;;;9.23;;
3587;SDS011;1808;53.596;9.972;2022-07-19T03:28:33;17.63;;;10.02;;
3587;SDS011;1808;53.596;9.972;2022-07-19T03:30:59;20.50;;;9.90;;
3587;SDS011;1808;53.596;9.972;2022-07-19T03:33:26;16.05;;;10.48;;
3587;SDS011;1808;53.596;9.972;2022-07-19T03:35:53;15.90;;;10.55;;
3587;SDS011;1808;53.596;9.972;2022-07-19T03:38:20;15.65;;;9.93;;
3587;SDS011;1808;53.596;9.972;2022-07-19T03:40:47;15.73;;;9.88;;
3587;SDS011;1808;53.596;9.972;2022-07-19T03:43:13;14.60;;;9.15;;
3587;SDS011;1808;53.596;9.972;2022-07-19T03:45:41;15.95;;;10.45;;
3587;SDS011;1808;53.596;9.972;2022-07-19T03:48:07;13.95;;;9.02;;
3587;SDS011;1808;53.596;9.972;2022-07-19T03:50:34;16.70;;;10.13;;
3587;SDS011;1808;53.596;9.972;2022-07-19T03:53:00;16.05;;;9.77;;
3587;SDS011;1808;53.596;9.972;2022-07-19T03:55:28;17.52;;;10.60;;
3587;SDS011;1808;53.596;9.972;2022-07-19T03:57:54;15.20;;;10.02;;
3587;SDS011;1808;53.596;9.972;2022-07-19T04:00:20;16.85;;;10.25;;
3587;SDS011;1808;53.596;9.972;2022-07-19T04:02:47;15.38;;;10.07;;
3587;SDS011;1808;53.596;9.972;2022-07-19T04:05:14;19.17;;;9.63;;
3587;SDS011;1808;53.596;9.972;2022-07-19T04:07:40;17.08;;;9.82;;
3587;SDS011;1808;53.596;9.972;2022-07-19T04:10:07;19.08;;;10.70;;
3587;SDS011;1808;53.596;9.972;2022-07-19T04:12:35;23.02;;;10.55;;
3587;SDS011;1808;53.596;9.972;2022-07-19T04:15:01;16.88;;;10.60;;
3587;SDS011;1808;53.596;9.972;2022-07-19T04:17:27;15.30;;;9.75;;
3587;SDS011;1808;53.596;9.972;2022-07-19T04:19:54;17.75;;;10.50;;
3587;SDS011;1808;53.596;9.972;2022-07-19T04:22:20;16.30;;;9.00;;
3587;SDS011;1808;53.596;9.972;2022-07-19T04:24:48;15.57;;;9.63;;
3587;SDS011;1808;53.596;9.972;2022-07-19T04:27:15;15.90;;;9.48;;
3587;SDS011;1808;53.596;9.972;2022-07-19T04:29:42;14.68;;;9.88;;
3587;SDS011;1808;53.596;9.972;2022-07-19T04:32:08;16.75;;;9.70;;
3587;SDS011;1808;53.596;9.972;2022-07-19T04:34:35;15.57;;;8.38;;
3587;SDS011;1808;53.596;9.972;2022-07-19T04:37:01;16.08;;;9.52;;
3587;SDS011;1808;53.596;9.972;2022-07-19T04:39:27;13.88;;;9.43;;
3587;SDS011;1808;53.596;9.972;2022-07-19T04:41:54;17.50;;;9.60;;
3587;SDS011;1808;53.596;9.972;2022-07-19T04:44:20;15.10;;;9.63;;
3587;SDS011;1808;53.596;9.972;2022-07-19T04:46:47;13.93;;;9.40;;
3587;SDS011;1808;53.596;9.972;2022-07-19T04:49:14;17.20;;;10.02;;
3587;SDS011;1808;53.596;9.972;2022-07-19T04:51:40;14.88;;;10.40;;
3587;SDS011;1808;53.596;9.972;2022-07-19T04:54:07;14.63;;;10.30;;
3587;SDS011;1808;53.596;9.972;2022-07-19T04:56:33;16.35;;;10.35;;
3587;SDS011;1808;53.596;9.972;2022-07-19T04:58:59;16.10;;;9.98;;
3587;SDS011;1808;53.596;9.972;2022-07-19T05:01:26;19.05;;;9.88;;
3587;SDS011;1808;53.596;9.972;2022-07-19T05:03:54;15.60;;;9.82;;
3587;SDS011;1808;53.596;9.972;2022-07-19T05:06:20;16.98;;;9.77;;
3587;SDS011;1808;53.596;9.972;2022-07-19T05:08:47;14.13;;;9.18;;
3587;SDS011;1808;53.596;9.972;2022-07-19T05:11:13;16.02;;;10.00;;
3587;SDS011;1808;53.596;9.972;2022-07-19T05:13:39;15.20;;;10.30;;
3587;SDS011;1808;53.596;9.972;2022-07-19T05:16:06;17.23;;;10.18;;
3587;SDS011;1808;53.596;9.972;2022-07-19T05:18:32;13.38;;;9.10;;
3587;SDS011;1808;53.596;9.972;2022-07-19T05:21:00;13.20;;;9.82;;
3587;SDS011;1808;53.596;9.972;2022-07-19T05:23:26;18.50;;;9.55;;
3587;SDS011;1808;53.596;9.972;2022-07-19T05:25:53;15.07;;;10.20;;
3587;SDS011;1808;53.596;9.972;2022-07-19T05:28:19;14.93;;;9.68;;
3587;SDS011;1808;53.596;9.972;2022-07-19T05:30:45;15.82;;;10.35;;
3587;SDS011;1808;53.596;9.972;2022-07-19T05:33:12;17.55;;;10.15;;
3587;SDS011;1808;53.596;9.972;2022-07-19T05:35:38;14.73;;;10.57;;
3587;SDS011;1808;53.596;9.972;2022-07-19T05:38:06;18.40;;;10.05;;
3587;SDS011;1808;53.596;9.972;2022-07-19T05:40:33;16.38;;;10.07;;
3587;SDS011;1808;53.596;9.972;2022-07-19T05:42:59;13.95;;;10.45;;
3587;SDS011;1808;53.596;9.972;2022-07-19T05:45:25;17.08;;;9.45;;
3587;SDS011;1808;53.596;9.972;2022-07-19T05:47:52;16.60;;;9.43;;
3587;SDS011;1808;53.596;9.972;2022-07-19T05:50:18;16.92;;;8.95;;
3587;SDS011;1808;53.596;9.972;2022-07-19T05:52:45;18.17;;;8.43;;
3587;SDS011;1808;53.596;9.972;2022-07-19T05:55:12;20.33;;;8.88;;
3587;SDS011;1808;53.596;9.972;2022-07-19T05:57:38;17.15;;;7.53;;
3587;SDS011;1808;53.596;9.972;2022-07-19T06:00:05;14.65;;;8.30;;
3587;SDS011;1808;53.596;9.972;2022-07-19T06:02:32;18.65;;;8.40;;
3587;SDS011;1808;53.596;9.972;2022-07-19T06:04:58;17.40;;;7.82;;
3587;SDS011;1808;53.596;9.972;2022-07-19T06:07:25;14.30;;;8.30;;
3587;SDS011;1808;53.596;9.972;2022-07-19T06:09:51;20.60;;;8.00;;
3587;SDS011;1808;53.596;9.972;2022-07-19T06:12:19;13.50;;;8.07;;
3587;SDS011;1808;53.596;9.972;2022-07-19T06:14:45;14.35;;;7.88;;
3587;SDS011;1808;53.596;9.972;2022-07-19T06:17:11;12.90;;;8.00;;
3587;SDS011;1808;53.596;9.972;2022-07-19T06:19:38;13.45;;;7.55;;
3587;SDS011;1808;53.596;9.972;2022-07-19T06:22:04;12.45;;;7.93;;
3587;SDS011;1808;53.596;9.972;2022-07-19T06:24:30;19.13;;;9.20;;
3587;SDS011;1808;53.596;9.972;2022-07-19T06:26:57;16.10;;;8.60;;
3587;SDS011;1808;53.596;9.972;2022-07-19T06:29:24;13.43;;;7.85;;
3587;SDS011;1808;53.596;9.972;2022-07-19T06:31:51;15.15;;;8.05;;
3587;SDS011;1808;53.596;9.972;2022-07-19T06:34:17;12.80;;;7.65;;
3587;SDS011;1808;53.596;9.972;2022-07-19T06:36:43;10.20;;;6.82;;
3587;SDS011;1808;53.596;9.972;2022-07-19T06:39:10;16.02;;;7.82;;
3587;SDS011;1808;53.596;9.972;2022-07-19T06:41:36;11.85;;;7.80;;
3587;SDS011;1808;53.596;9.972;2022-07-19T06:44:03;15.77;;;6.88;;
3587;SDS011;1808;53.596;9.972;2022-07-19T06:46:31;16.80;;;7.45;;
3587;SDS011;1808;53.596;9.972;2022-07-19T06:48:57;16.10;;;7.40;;
3587;SDS011;1808;53.596;9.972;2022-07-19T06:51:23;13.95;;;6.72;;
3587;SDS011;1808;53.596;9.972;2022-07-19T06:53:50;14.95;;;7.35;;
3587;SDS011;1808;53.596;9.972;2022-07-19T06:56:16;13.15;;;7.30;;
3587;SDS011;1808;53.596;9.972;2022-07-19T06:58:42;15.52;;;7.70;;
3587;SDS011;1808;53.596;9.972;2022-07-19T07:01:09;14.20;;;7.28;;
3587;SDS011;1808;53.596;9.972;2022-07-19T07:03:36;11.35;;;7.18;;
3587;SDS011;1808;53.596;9.972;2022-07-19T07:06:03;12.35;;;7.50;;
3587;SDS011;1808;53.596;9.972;2022-07-19T07:08:30;17.63;;;8.77;;
3587;SDS011;1808;53.596;9.972;2022-07-19T07:10:56;13.23;;;6.75;;
3587;SDS011;1808;53.596;9.972;2022-07-19T07:13:22;13.43;;;7.65;;
3587;SDS011;1808;53.596;9.972;2022-07-19T07:15:48;12.82;;;7.32;;
3587;SDS011;1808;53.596;9.972;2022-07-19T07:18:15;12.00;;;7.10;;
3587;SDS011;1808;53.596;9.972;2022-07-19T07:20:42;13.70;;;7.20;;
3587;SDS011;1808;53.596;9.972;2022-07-19T07:23:09;11.85;;;6.90;;
3587;SDS011;1808;53.596;9.972;2022-07-19T07:25:36;13.90;;;7.30;;
3587;SDS011;1808;53.596;9.972;2022-07-19T07:28:02;15.38;;;7.05;;
3587;SDS011;1808;53.596;9.972;2022-07-19T07:30:28;11.73;;;7.28;;
3587;SDS011;1808;53.596;9.972;2022-07-19T07:32:55;12.27;;;6.90;;
3587;SDS011;1808;53.596;9.972;2022-07-19T07:35:21;15.00;;;8.40;;
3587;SDS011;1808;53.596;9.972;2022-07-19T07:37:49;16.80;;;7.97;;
3587;SDS011;1808;53.596;9.972;2022-07-19T07:40:15;12.25;;;6.50;;
3587;SDS011;1808;53.596;9.972;2022-07-19T07:42:42;12.10;;;6.82;;
3587;SDS011;1808;53.596;9.972;2022-07-19T07:45:09;10.80;;;6.75;;
3587;SDS011;1808;53.596;9.972;2022-07-19T07:47:35;10.80;;;6.78;;
3587;SDS011;1808;53.596;9.972;2022-07-19T07:50:02;10.07;;;6.93;;
3587;SDS011;1808;53.596;9.972;2022-07-19T07:52:29;11.50;;;6.65;;
3587;SDS011;1808;53.596;9.972;2022-07-19T07:54:57;9.43;;;6.28;;
3587;SDS011;1808;53.596;9.972;2022-07-19T07:57:24;9.82;;;6.13;;
3587;SDS011;1808;53.596;9.972;2022-07-19T07:59:50;13.35;;;6.15;;
3587;SDS011;1808;53.596;9.972;2022-07-19T08:02:17;11.48;;;6.72;;
3587;SDS011;1808;53.596;9.972;2022-07-19T08:04:43;9.50;;;6.00;;
3587;SDS011;1808;53.596;9.972;2022-07-19T08:07:09;9.55;;;6.60;;
3587;SDS011;1808;53.596;9.972;2022-07-19T08:09:36;12.48;;;6.30;;
3587;SDS011;1808;53.596;9.972;2022-07-19T08:12:03;10.70;;;6.05;;
3587;SDS011;1808;53.596;9.972;2022-07-19T08:14:30;13.65;;;6.55;;
3587;SDS011;1808;53.596;9.972;2022-07-19T08:16:56;13.65;;;6.90;;
3587;SDS011;1808;53.596;9.972;2022-07-19T08:19:23;9.50;;;5.97;;
3587;SDS011;1808;53.596;9.972;2022-07-19T08:21:50;9.70;;;6.03;;
3587;SDS011;1808;53.596;9.972;2022-07-19T08:24:16;8.90;;;6.30;;
3587;SDS011;1808;53.596;9.972;2022-07-19T08:26:43;12.13;;;6.28;;
3587;SDS011;1808;53.596;9.972;2022-07-19T08:29:11;9.43;;;5.97;;
3587;SDS011;1808;53.596;9.972;2022-07-19T08:31:37;11.50;;;5.40;;
3587;SDS011;1808;53.596;9.972;2022-07-19T08:34:04;11.27;;;5.70;;
3587;SDS011;1808;53.596;9.972;2022-07-19T08:36:30;11.13;;;5.68;;
3587;SDS011;1808;53.596;9.972;2022-07-19T08:38:56;10.68;;;6.05;;
3587;SDS011;1808;53.596;9.972;2022-07-19T08:41:23;7.55;;;5.32;;
3587;SDS011;1808;53.596;9.972;2022-07-19T08:43:49;8.65;;;5.10;;
3587;SDS011;1808;53.596;9.972;2022-07-19T08:46:17;10.73;;;5.75;;
3587;SDS011;1808;53.596;9.972;2022-07-19T08:48:45;8.93;;;5.88;;
3587;SDS011;1808;53.596;9.972;2022-07-19T08:51:11;7.97;;;5.35;;
3587;SDS011;1808;53.596;9.972;2022-07-19T08:53:38;8.00;;;5.35;;
3587;SDS011;1808;53.596;9.972;2022-07-19T08:56:06;13.23;;;5.72;;
3587;SDS011;1808;53.596;9.972;2022-07-19T08:58:52;8.63;;;5.70;;
3587;SDS011;1808;53.596;9.972;2022-07-19T09:01:19;12.02;;;5.78;;
3587;SDS011;1808;53.596;9.972;2022-07-19T09:06:46;7.63;;;5.50;;
3587;SDS011;1808;53.596;9.972;2022-07-19T09:09:14;9.25;;;5.55;;
3587;SDS011;1808;53.596;9.972;2022-07-19T09:11:42;8.23;;;5.10;;
3587;SDS011;1808;53.596;9.972;2022-07-19T09:14:15;8.55;;;4.85;;
3587;SDS011;1808;53.596;9.972;2022-07-19T09:16:49;12.00;;;5.65;;
3587;SDS011;1808;53.596;9.972;2022-07-19T09:19:19;7.70;;;5.47;;
3587;SDS011;1808;53.596;9.972;2022-07-19T09:21:50;11.60;;;5.80;;
3587;SDS011;1808;53.596;9.972;2022-07-19T09:24:17;10.23;;;4.97;;
3587;SDS011;1808;53.596;9.972;2022-07-19T09:26:53;8.02;;;5.53;;
3587;SDS011;1808;53.596;9.972;2022-07-19T09:29:21;10.00;;;4.90;;
3587;SDS011;1808;53.596;9.972;2022-07-19T09:32:02;7.30;;;4.88;;
3587;SDS011;1808;53.596;9.972;2022-07-19T09:34:31;7.38;;;5.10;;
3587;SDS011;1808;53.596;9.972;2022-07-19T09:37:11;12.65;;;5.80;;
3587;SDS011;1808;53.596;9.972;2022-07-19T09:39:40;6.47;;;4.38;;
3587;SDS011;1808;53.596;9.972;2022-07-19T09:42:10;9.18;;;5.43;;
3587;SDS011;1808;53.596;9.972;2022-07-19T09:44:36;10.10;;;5.40;;
3587;SDS011;1808;53.596;9.972;2022-07-19T09:47:04;7.80;;;4.85;;
3587;SDS011;1808;53.596;9.972;2022-07-19T09:49:30;11.88;;;5.90;;
3587;SDS011;1808;53.596;9.972;2022-07-19T09:51:57;7.65;;;5.25;;
3587;SDS011;1808;53.596;9.972;2022-07-19T09:54:24;8.88;;;5.00;;
3587;SDS011;1808;53.596;9.972;2022-07-19T09:56:51;9.43;;;5.38;;
3587;SDS011;1808;53.596;9.972;2022-07-19T09:59:19;8.05;;;3.97;;
3587;SDS011;1808;53.596;9.972;2022-07-19T10:01:47;7.53;;;4.50;;
3587;SDS011;1808;53.596;9.972;2022-07-19T10:04:16;9.43;;;5.15;;
3587;SDS011;1808;53.596;9.972;2022-07-19T10:06:46;6.50;;;4.90;;
3587;SDS011;1808;53.596;9.972;2022-07-19T10:09:15;11.80;;;4.75;;
3587;SDS011;1808;53.596;9.972;2022-07-19T10:11:42;6.07;;;4.57;;
3587;SDS011;1808;53.596;9.972;2022-07-19T10:14:09;8.30;;;5.43;;
3587;SDS011;1808;53.596;9.972;2022-07-19T10:16:40;6.28;;;4.18;;
3587;SDS011;1808;53.596;9.972;2022-07-19T10:19:12;6.40;;;5.05;;
3587;SDS011;1808;53.596;9.972;2022-07-19T10:21:44;8.07;;;4.80;;
3587;SDS011;1808;53.596;9.972;2022-07-19T10:24:12;6.10;;;4.28;;
3587;SDS011;1808;53.596;9.972;2022-07-19T10:26:39;6.28;;;4.53;;
3587;SDS011;1808;53.596;9.972;2022-07-19T10:29:07;9.00;;;4.65;;
3587;SDS011;1808;53.596;9.972;2022-07-19T10:31:34;7.25;;;4.85;;
3587;SDS011;1808;53.596;9.972;2022-07-19T10:34:02;8.85;;;4.25;;
3587;SDS011;1808;53.596;9.972;2022-07-19T10:36:34;8.40;;;3.80;;
3587;SDS011;1808;53.596;9.972;2022-07-19T10:39:21;9.65;;;3.97;;
3587;SDS011;1808;53.596;9.972;2022-07-19T10:42:09;7.70;;;4.75;;
3587;SDS011;1808;53.596;9.972;2022-07-19T10:48:01;4.00;;;3.05;;
3587;SDS011;1808;53.596;9.972;2022-07-19T10:50:51;5.25;;;3.45;;
3587;SDS011;1808;53.596;9.972;2022-07-19T10:56:36;7.55;;;3.92;;
3587;SDS011;1808;53.596;9.972;2022-07-19T10:59:04;5.25;;;3.90;;
3587;SDS011;1808;53.596;9.972;2022-07-19T11:01:33;4.72;;;3.38;;
3587;SDS011;1808;53.596;9.972;2022-07-19T11:07:08;5.22;;;3.78;;
3587;SDS011;1808;53.596;9.972;2022-07-19T11:09:40;5.03;;;3.20;;
3587;SDS011;1808;53.596;9.972;2022-07-19T11:12:21;5.10;;;3.35;;
3587;SDS011;1808;53.596;9.972;2022-07-19T11:14:52;4.72;;;3.35;;
3587;SDS011;1808;53.596;9.972;2022-07-19T11:17:19;5.03;;;3.58;;
3587;SDS011;1808;53.596;9.972;2022-07-19T11:20:05;7.28;;;3.50;;
3587;SDS011;1808;53.596;9.972;2022-07-19T11:22:34;5.45;;;3.70;;
3587;SDS011;1808;53.596;9.972;2022-07-19T11:25:03;6.07;;;3.92;;
3587;SDS011;1808;53.596;9.972;2022-07-19T11:27:30;5.10;;;3.50;;
3587;SDS011;1808;53.596;9.972;2022-07-19T11:29:58;8.30;;;3.47;;
3587;SDS011;1808;53.596;9.972;2022-07-19T11:32:25;4.60;;;3.20;;
3587;SDS011;1808;53.596;9.972;2022-07-19T11:34:55;9.18;;;3.33;;
3587;SDS011;1808;53.596;9.972;2022-07-19T11:37:22;10.15;;;4.00;;
3587;SDS011;1808;53.596;9.972;2022-07-19T11:39:50;6.97;;;3.42;;
3587;SDS011;1808;53.596;9.972;2022-07-19T11:42:27;4.95;;;3.40;;
3587;SDS011;1808;53.596;9.972;2022-07-19T11:44:58;5.55;;;3.50;;
3587;SDS011;1808;53.596;9.972;2022-07-19T11:47:25;7.80;;;3.38;;
3587;SDS011;1808;53.596;9.972;2022-07-19T11:49:51;8.40;;;3.60;;
3587;SDS011;1808;53.596;9.972;2022-07-19T11:52:18;7.20;;;3.40;;
3587;SDS011;1808;53.596;9.972;2022-07-19T11:54:57;7.30;;;3.53;;
3587;SDS011;1808;53.596;9.972;2022-07-19T11:57:24;6.22;;;3.22;;
3587;SDS011;1808;53.596;9.972;2022-07-19T11:59:52;6.50;;;3.60;;
3587;SDS011;1808;53.596;9.972;2022-07-19T12:02:18;5.93;;;3.53;;
3587;SDS011;1808;53.596;9.972;2022-07-19T12:04:45;7.97;;;3.30;;
3587;SDS011;1808;53.596;9.972;2022-07-19T12:07:11;4.72;;;2.97;;
3587;SDS011;1808;53.596;9.972;2022-07-19T12:09:37;4.60;;;2.97;;
3587;SDS011;1808;53.596;9.972;2022-07-19T12:12:12;4.65;;;3.60;;
3587;SDS011;1808;53.596;9.972;2022-07-19T12:14:39;5.55;;;3.03;;
3587;SDS011;1808;53.596;9.972;2022-07-19T12:17:11;5.35;;;3.28;;
3587;SDS011;1808;53.596;9.972;2022-07-19T12:19:38;18.05;;;3.63;;
3587;SDS011;1808;53.596;9.972;2022-07-19T12:22:05;7.97;;;3.75;;
3587;SDS011;1808;53.596;9.972;2022-07-19T12:24:32;6.78;;;3.20;;
3587;SDS011;1808;53.596;9.972;2022-07-19T12:27:10;5.60;;;3.10;;
3587;SDS011;1808;53.596;9.972;2022-07-19T12:29:43;7.47;;;3.60;;
3587;SDS011;1808;53.596;9.972;2022-07-19T12:32:12;5.57;;;3.47;;
3587;SDS011;1808;53.596;9.972;2022-07-19T12:34:43;5.75;;;3.00;;
3587;SDS011;1808;53.596;9.972;2022-07-19T12:37:21;8.48;;;3.42;;
3587;SDS011;1808;53.596;9.972;2022-07-19T12:39:56;4.35;;;3.10;;
3587;SDS011;1808;53.596;9.972;2022-07-19T12:42:23;3.55;;;2.70;;
3587;SDS011;1808;53.596;9.972;2022-07-19T12:44:50;7.85;;;3.10;;
3587;SDS011;1808;53.596;9.972;2022-07-19T12:47:18;5.15;;;2.78;;
3587;SDS011;1808;53.596;9.972;2022-07-19T12:49:45;6.95;;;2.40;;
3587;SDS011;1808;53.596;9.972;2022-07-19T12:52:11;5.38;;;2.70;;
3587;SDS011;1808;53.596;9.972;2022-07-19T12:54:38;6.18;;;2.67;;
3587;SDS011;1808;53.596;9.972;2022-07-19T12:57:04;7.47;;;3.28;;
3587;SDS011;1808;53.596;9.972;2022-07-19T12:59:30;6.18;;;2.60;;
3587;SDS011;1808;53.596;9.972;2022-07-19T13:02:06;6.32;;;2.67;;
3587;SDS011;1808;53.596;9.972;2022-07-19T13:04:34;6.57;;;3.53;;
3587;SDS011;1808;53.596;9.972;2022-07-19T13:07:01;6.90;;;3.20;;
3587;SDS011;1808;53.596;9.972;2022-07-19T13:09:27;4.55;;;2.88;;
3587;SDS011;1808;53.596;9.972;2022-07-19T13:11:54;6.28;;;3.10;;
3587;SDS011;1808;53.596;9.972;2022-07-19T13:14:20;4.95;;;3.13;;
3587;SDS011;1808;53.596;9.972;2022-07-19T13:16:48;8.13;;;3.60;;
3587;SDS011;1808;53.596;9.972;2022-07-19T13:19:15;5.40;;;3.30;;
3587;SDS011;1808;53.596;9.972;2022-07-19T13:21:42;6.32;;;3.40;;
3587;SDS011;1808;53.596;9.972;2022-07-19T13:24:09;9.40;;;3.40;;
3587;SDS011;1808;53.596;9.972;2022-07-19T13:26:35;4.53;;;3.55;;
3587;SDS011;1808;53.596;9.972;2022-07-19T13:29:02;7.13;;;3.75;;
3587;SDS011;1808;53.596;9.972;2022-07-19T13:31:28;4.95;;;3.30;;
3587;SDS011;1808;53.596;9.972;2022-07-19T13:33:54;5.78;;;3.95;;
3587;SDS011;1808;53.596;9.972;2022-07-19T13:36:21;4.97;;;3.80;;
3587;SDS011;1808;53.596;9.972;2022-07-19T13:38:49;9.95;;;3.70;;
3587;SDS011;1808;53.596;9.972;2022-07-19T13:41:15;10.07;;;3.17;;
3587;SDS011;1808;53.596;9.972;2022-07-19T13:43:43;6.68;;;3.45;;
3587;SDS011;1808;53.596;9.972;2022-07-19T13:46:10;5.20;;;3.63;;
3587;SDS011;1808;53.596;9.972;2022-07-19T13:48:36;5.82;;;3.80;;
3587;SDS011;1808;53.596;9.972;2022-07-19T13:51:02;5.63;;;3.65;;
3587;SDS011;1808;53.596;9.972;2022-07-19T13:53:29;8.30;;;3.95;;
3587;SDS011;1808;53.596;9.972;2022-07-19T13:55:56;10.52;;;3.58;;
3587;SDS011;1808;53.596;9.972;2022-07-19T13:58:23;9.27;;;3.80;;
3587;SDS011;1808;53.596;9.972;2022-07-19T14:00:49;6.65;;;3.40;;
3587;SDS011;1808;53.596;9.972;2022-07-19T14:03:15;6.45;;;3.80;;
3587;SDS011;1808;53.596;9.972;2022-07-19T14:05:43;6.38;;;3.63;;
3587;SDS011;1808;53.596;9.972;2022-07-19T14:08:09;10.40;;;3.63;;
3587;SDS011;1808;53.596;9.972;2022-07-19T14:10:36;5.85;;;3.60;;
3587;SDS011;1808;53.596;9.972;2022-07-19T14:13:04;16.33;;;10.02;;
3587;SDS011;1808;53.596;9.972;2022-07-19T14:15:30;7.22;;;3.85;;
3587;SDS011;1808;53.596;9.972;2022-07-19T14:17:57;12.15;;;4.13;;
3587;SDS011;1808;53.596;9.972;2022-07-19T14:20:23;4.85;;;3.35;;
3587;SDS011;1808;53.596;9.972;2022-07-19T14:22:49;4.47;;;3.10;;
3587;SDS011;1808;53.596;9.972;2022-07-19T14:25:16;5.20;;;3.60;;
3587;SDS011;1808;53.596;9.972;2022-07-19T14:27:42;8.93;;;3.50;;
3587;SDS011;1808;53.596;9.972;2022-07-19T14:30:10;9.13;;;3.58;;
3587;SDS011;1808;53.596;9.972;2022-07-19T14:32:37;4.80;;;3.67;;
3587;SDS011;1808;53.596;9.972;2022-07-19T14:35:03;5.15;;;3.45;;
3587;SDS011;1808;53.596;9.972;2022-07-19T14:37:30;5.45;;;3.33;;
3587;SDS011;1808;53.596;9.972;2022-07-19T14:39:56;29.75;;;5.13;;
3587;SDS011;1808;53.596;9.972;2022-07-19T14:42:23;9.13;;;5.30;;
3587;SDS011;1808;53.596;9.972;2022-07-19T14:44:49;7.45;;;4.85;;
3587;SDS011;1808;53.596;9.972;2022-07-19T14:47:17;4.43;;;3.30;;
3587;SDS011;1808;53.596;9.972;2022-07-19T14:49:43;7.07;;;3.97;;
3587;SDS011;1808;53.596;9.972;2022-07-19T14:52:09;7.95;;;3.50;;
3587;SDS011;1808;53.596;9.972;2022-07-19T14:54:35;7.40;;;3.20;;
3587;SDS011;1808;53.596;9.972;2022-07-19T14:57:02;8.63;;;3.58;;
3587;SDS011;1808;53.596;9.972;2022-07-19T14:59:28;7.32;;;3.47;;
3587;SDS011;1808;53.596;9.972;2022-07-19T15:01:55;10.38;;;3.90;;
3587;SDS011;1808;53.596;9.972;2022-07-19T15:04:22;8.98;;;3.63;;
3587;SDS011;1808;53.596;9.972;2022-07-19T15:06:49;9.18;;;3.60;;
3587;SDS011;1808;53.596;9.972;2022-07-19T15:09:15;10.50;;;3.50;;
3587;SDS011;1808;53.596;9.972;2022-07-19T15:11:41;5.85;;;3.42;;
3587;SDS011;1808;53.596;9.972;2022-07-19T15:14:08;7.55;;;3.60;;
3587;SDS011;1808;53.596;9.972;2022-07-19T15:16:34;7.13;;;3.60;;
3587;SDS011;1808;53.596;9.972;2022-07-19T15:19:01;6.47;;;3.20;;